Menü
  • Der Teide (3718 m)

    Wolkendunst im Orotavatal

  • Los Christianos

    Urlauberzentrum im Süden Teneriffas

  • Mandelblüte

    bereits Ende Januar zu erleben

  • Die Küste von Taganana

    Im Norden von Teneriffa

  • Teide Nationalpark

    urwüchsige Landschaft in den Cañadas

  • Angler in Garachico

    Hobby oder Essensbeschaffung?

  • Teneriffa´s Sonne

    Sonnenuntergang in Puerto de la Cruz

Wetterdaten des Jahres 2016

Zusammenstellung der im Jahr 2016 gesammelten Wetterdaten.
Sind Sie an noch weiteren detaillierteren Informationen interessiert, klicken Sie bitte hier.


 

Zu den weiteren zusammengestellten Übersichtsseiten:

Wetterdaten: Jahr 2016 (Stand: 30.04.2016)

Durchschnitt Minimum Temperatur:

13,5 °C

  Verteilung der Windrichtung
Durchschnitt Maximum Temperatur:

20,2 °C

  Windstille

52,4 %

  N-NO

8,7 %

Jahr Standard-Abweichung:

+ 16,24 K

  NO

4,7 %

Jahr Normal Wert:

0,00 °C

  0-NO

6,4 %

Eistage (Tmax < 0°C) :

0

  O

3,0 %

Frosttage (Tmin < 0°C) :

0

  O-SO

12,6 %

Kalte Tage (Tmin <= 0,0°C) :

1

  SO

13,5 %

Kalte Tage (Tmax < 10°C) :

0

  S-SO

9,1 %

Warme Tage (Tmax >= 0,0°C) :

76

  S

8,1 %

Sommertage (Tmax >= 25°C) :

2

  S-SW

2,6 %

Heiße Tage (Tmax >= 30°C) :

0

  SW

3,2 %

  W-SW

2,2 %

Regentage   W

3,7 %

> 0,0 l/m²

30

  W-NW

4,0 %

> 2,0 l/m²

22

  NW

6,6 %

> 20,0 l/m²

5

  N-NW

6,8 %

Jahr Standard-Abweichung:

+ 408,6 l/m²

  N

4,8 %

Jahr Normal Wert:

0,0 l/m²

 

Temperatur: Jahr 2016 (Stand 30.04.2016)

Datum der Minimum-Temperatur 2016

19.02.2016 07:29 Uhr zu 2015

Minimum-Wert 2016

9,6 °C

-0,1 °C

Datum der Maximum-Temperatur 2016

15.01.2016 14:53 Uhr

Maximum-Wert 2016

25,9 °C

- 7,1 °C

Durchschnittswert 2016

16,2 °C

- 2,6 °C

 

Datum

Temp.

(+/- zum Vorjahr)

Max.

Min.

Januar 2016
01.01.2016 14,5 °C -- °C 11,7 °C 19,7 °C
02.01.2016 14,7 °C -- °C 11,6 °C 20,2 °C
03.01.2016 14,7 °C -- °C 12,1 °C 19,3 °C
04.01.2016 14,8 °C -- °C 12,3 °C 17,8 °C
05.01.2016 16,2 °C -- °C 13,7 °C 20,1 °C
06.01.2016 14,5 °C -- °C 11,7 °C 18,0 °C
07.01.2016 14,5 °C - 5,4 °C 11,4 °C 17,8 °C
08.01.2016 15,6 °C + 1,5 °C 12,5 °C 18,8 °C
09.01.2016 15,8 °C + 1,7 °C 13,4 °C 18,7 °C
10.01.2016 15,5 °C + 0,4 °C 12,7 °C 20,0 °C
11.01.2016 15,7 °C - 1,0 °C 13,0 °C 19,7 °C
12.01.2016 15,4 °C - 1,2 °C 12,7 °C 20,2 °C
13.01.2016 17,5 °C + 2,3 °C 13,4 °C 23,7 °C
14.01.2016 19,4 °C + 4,6 °C 16,1 °C 24,3 °C
15.01.2016 20,6 °C + 6,4 °C 17,5 °C 25,9 °C
16.01.2016 20,0 °C + 6,1 °C 17,2 °C 25,4 °C
17.01.2016 17,5 °C + 2,9 °C 15,4 °C 21,1 °C
18.01.2016 15,9 °C + 1,0 °C 13,5 °C 19,7 °C
19.01.2016 15,1 °C - 0,1 °C 12,7 °C 19,5 °C
20.01.2016 14,8 °C + 0,1 °C 11,6 °C 19,2 °C
21.01.2016 15,1 °C + 0,7 °C 11,7 °C 20,1 °C
22.01.2016 16,2 °C + 1,7 °C 13,2 °C 21,3 °C
23.01.2016 16,3 °C + 1,5 °C 13,5 °C 20,7 °C
24.01.2016 17,4 °C + 1,9 °C 14,4 °C 23,1 °C
25.01.2016 16,1 °C + 1,2 °C 13,4 °C 20,5 °C
26.01.2016 15,9 °C + 1,7 °C 12,6 °C 22,1 °C
27.01.2016 16,0 °C + 1,9 °C 12,7 °C 22,1 °C
28.01.2016 15,8 °C + 0,7 °C 13,1 °C 19,9 °C
29.01.2016 16,6 °C + 1,6 °C 13,3 °C 21,1 °C
30.01.2016 16,0 °C + 0,9 °C 13,7 °C 19,7 °C
31.01.2016 15,3 °C + 0,3 °C 11,6 °C 20,3 °C
Februar 2016
01.02.2016 16,1 °C + 0,9 °C 12,2 °C 21,6 °C
02.02.2016 16,1 °C + 1,6 °C 14,1 °C 19,3 °C
03.02.2016 15,9 °C + 1,8 °C 12,7 °C 20,1 °C
04.02.2016 15,8 °C + 1,7 °C 13,0 °C 19,7 °C
05.02.2016 16,3 °C + 1,7 °C 12,9 °C 19,5 °C
06.02.2016 16,9 °C + 1,4 °C 14,5 °C 21,7 °C
07.02.2016 15,7 °C + 1,3 °C 12,3 °C 19,9 °C
08.02.2016 16,3 °C + 2,7 °C 13,0 °C 20,4 °C
09.02.2016 16,2 °C + 3,1 °C 14,0 °C 20,2 °C
10.02.2016 16,4 °C + 1,7 °C 13,5 °C 19,8 °C
11.02.2016 16,7 °C + 1,9 °C 13,8 °C 20,8 °C
12.02.2016 16,5 °C + 2,3 °C 14,5 °C 19,7 °C
13.02.2016 16,5 °C + 2,3 °C 14,5 °C 18,8 °C
14.02.2016 16,9 °C + 2,7 °C 14,8 °C 20,3 °C
15.02.2016 16,1 °C + 1,8 °C 14,2 °C 20,5 °C
16.02.2016 15,5 °C + 1,0 °C 13,7 °C 19,4 °C
17.02.2016 15,5 °C + 0,5 °C 13,1 °C 18,3 °C
18.02.2016 12,9 °C - 1,3 °C 10,8 °C 14,9 °C
19.02.2016 11,0 °C - 2,9 °C 9,6 °C 13,3 °C
20.02.2016 12,2 °C - 2,4 °C 10,4 °C 13,9 °C
21.02.2016 14,3 °C - 0,6 °C 11,4 °C 18,5 °C
22.02.2016 13,8 °C - 1,6 °C 10,4 °C 18,4 °C
23.02.2016 14,4 °C - 0,4 °C 11,5 °C 18,1 °C
24.02.2016 15,7 °C + 0,3 °C 13,5 °C 19,2 °C
25.02.2016 15,4 °C + 0,5 °C 12,3 °C 18,8 °C
26.02.2016 15,7 °C + 1,2 °C 13,7 °C 18,8 °C
27.02.2016 15,4 °C + 1,3 °C 13,4 °C 18,7 °C
28.02.2016 15,8 °C + 0,7 °C 14,1 °C 19,8 °C
29.02.2016 15,1 °C - 0,4 °C 13,3 °C 18,6 °C
März 2016
01.03.2016 15,1 °C - 0,4 °C 13,0 °C 17,8 °C
02.03.2016 17,4 °C + 2,3 °C 12,6 °C 24,9 °C
03.03.2016 16,7 °C + 0,7 °C 13,5 °C 21,4 °C
04.03.2016 15,4 °C - 0,9 °C 12,5 °C 18,7 °C
05.03.2016 16,0 °C - 0,2 °C 13,9 °C 20,1 °C
06.03.2016 15,5 °C - 1,1 °C 13,3 °C 18,7 °C
07.03.2016 14,9 °C - 1,7 °C 12,7 °C 18,4 °C
08.03.2016 15,2 °C - 6,9 °C 13,0 °C 19,2 °C
09.03.2016 15,7 °C - 0,6 °C 13,2 °C 19,4 °C
10.03.2016 15,3 °C - 0,8 °C 12,5 °C 19,1 °C
11.03.2016 15,2 °C - 0,1 °C 12,3 °C 18,3 °C
12.03.2016 15,5 °C + 0,3 °C 13,1 °C 18,3 °C
13.03.2016 14,8 °C - 0,9 °C 12,5 °C 17,8 °C
14.03.2016 13,8 °C - 1,9 °C 10,8 °C 17,9 °C
15.03.2016 14,6 °C - 0,8 °C 10,2 °C 20,5 °C
16.03.2016 16,6 °C + 2,7 °C 12,6 °C 22,5 °C
17.03.2016 17,7 °C + 3,4 °C 14,2 °C 22,7 °C
18.03.2016 17,5 °C + 3,3 °C 14,3 °C 21,4 °C
19.03.2016 17,7 °C + 3,3 °C 15,9 °C 20,9 °C
20.03.2016 16,0 °C + 1,5 °C 13,9 °C 18,6 °C
21.03.2016 15,3 °C + 0,7 °C 13,0 °C 19,3 °C
22.03.2016 15,6 °C + 1,6 °C 13,1 °C 19,4 °C
23.03.2016 15,6 °C + 2,3 °C 13,7 °C 19,4 °C
24.03.2016 15,4 °C + 0,8 °C 12,5 °C 19,5 °C
25.03.2016 15,2 °C + 0,6 °C 11,7 °C 19,3 °C
26.03.2016 15,6 °C + 0,2 °C 12,3 °C 20,7 °C
27.03.2016 15,4 °C - 0,6 °C 11,6 °C 19,5 °C
28.03.2016 16,3 °C + 0,7 °C 13,2 °C 19,7 °C
29.03.2016 15,0 °C - 0,4 °C 11,6 °C 19,7 °C
30.03.2016 15,4 °C - 2,1 °C 13,8 °C 19,1 °C
31.03.2016 14,4 °C - 1,9 °C 13,3 °C 17,7 °C
April 2016
01.04.2016 14,6 °C - 1,8 °C 12,6 °C 17,5 °C
02.04.2016 15,9 °C - 0,6 °C 14,1 °C 19,2 °C
03.04.2016 15,5 °C - 0,8 °C 13,4 °C 18,1 °C
04.04.2016 16,1 °C - 0,3 °C 12,7 °C 20,8 °C
05.04.2016 17,4 °C + 1,0 °C 15,2 °C 21,5 °C
06.04.2016 16,9 °C + 0,6 °C 14,3 °C 20,0 °C
07.04.2016 17,5 °C + 2,3 °C 14,0 °C 22,8 °C
08.04.2016 16,8 °C + 1,3 °C 14,3 °C 20,4 °C
09.04.2016 16,0 °C + 0,3 °C 12,9 °C 19,8 °C
10.04.2016 16,8 °C + 0,3 °C 14,0 °C 20,9 °C
11.04.2016 16,8 °C + 0,3 °C 14,3 °C 20,6 °C
12.04.2016 15,9 °C - 0,5 °C 12,8 °C 19,1 °C
13.04.2016 16,1 °C + 0,4 °C 12,6 °C 19,5 °C
14.04.2016 16,0 °C + 0,6 °C 12,1 °C 20,9 °C
15.04.2016 17,7 °C + 2,1 °C 14,0 °C 22,7 °C
16.04.2016 18,4 °C + 1,5 °C 14,7 °C 23,2 °C
17.04.2016 18,5 °C + 1,9 °C 15,4 °C 22,1 °C
18.04.2016 18,0 °C + 1,6 °C 15,7 °C 20,5 °C
19.04.2016 16,8 °C + 0,4 °C 14,2 °C 20,0 °C
20.04.2016 15,9 °C - 1,1 °C 12,3 °C 20,5 °C
21.04.2016 16,8 °C  --- °C 11,8 °C 21,3 °C
22.04.2016 18,5 °C + 2,5 °C 14,7 °C 23,2 °C
23.04.2016 18,0 °C + 1,6 °C 16,0 °C 20,2 °C
24.04.2016 18,3 °C + 1,2 °C 15,4 °C 23,5 °C
25.04.2016 17,9 °C + 0,3 °C 15,2 °C 20,5 °C
26.04.2016 17,6 °C --- °C 15,1 °C 21,8 °C
27.04.2016 17,0 °C - 2,4 °C 14,8 °C 20,4 °C
28.04.2016 17,6 °C - 0,6 °C 14,4 °C 21,5 °C
29.04.2016 17,7 °C --- °C 13,6 °C 22,6 °C
30.04.2016 18,7 °C + 1,1 °C 16,4 °C 23,1 °C
Mai 2016

Luftfeuchte und Regen: Jahr 2016 (Stand: 30.04.2016)

Datum Minimum-Luftfeuchte 2016 15.01.2016 16:23 Uhr   zu 2015
Minimum-Wert 2016 25 %   + 8 %
Datum Maximum-Luftfeuchte 2016 18.02.2016 10:59 Uhr 19.02.2016
Maximum-Wert 2016 91 % 124,3 l/m² - 2 %
Durchschnitt-Luftfeuchte 2016 71 %   + 1 %
Anzahl Regentage 30 Tage   - 33 Tage
Gesamtregenmenge 2016   #408,6 l/m² - 76,9 l/m²

 

Datum

Luftfeuchte

Max

Min

Regen

Max

Januar 2016
01.01.2016 74 % 64 % 83 % 0,0 l/m²  
02.01.2016 71 % 58 % 78 % 0,0 l/m²  
03.01.2016 80 % 72 % 86 % 0,0 l/m²  
04.01.2016 81 % 74 % 86 % 0,0 l/m²  
05.01.2016 79 % 66 % 88 % 6,9 l/m² 2,1 l/m²
06.01.2016 73 % 66 % 81 % 0,0 l/m²  
07.01.2016 74 % 67 % 80 % 0,0 l/m²  
08.01.2016 72 % 63 % 80 % 0,0 l/m²  
09.01.2016 81 % 72 % 86 % 0,0 l/m²  
10.01.2016 79 % 69 % 86 % 0,0 l/m²  
11.01.2016 80 % 75 % 85 % 0,0 l/m²  
12.01.2016 71 % 64 % 81 % 0,0 l/m²  
13.01.2016 56 % 40 % 70 % 0,0 l/m²  
14.01.2016 45 % 37 % 52 % 0,0 l/m²  
15.01.2016 37 % 25 % 46 % 0,0 l/m²  
16.01.2016 40 % 27 % 60 % 0,0 l/m²  
17.01.2016 62 % 44 % 76 % 0,0 l/m²  
18.01.2016 73 % 69 % 78 % 0,0 l/m²  
19.01.2016 71 % 57 % 82 % 0,0 l/m²  
20.01.2016 73 % 61 % 81 % 0,0 l/m²  
21.01.2016 71 % 63 % 80 % 0,0 l/m²  
22.01.2016 75 % 68 % 83 % 0,0 l/m²  
23.01.2016 77 % 67 % 84 % 0,0 l/m²  
24.01.2016 56 % 42 % 69 % 0,0 l/m²  
25.01.2016 63 % 58 % 70 % 0,0 l/m²  
26.01.2016 46 % 32 % 66 % 0,0 l/m²  
27.01.2016 50 % 33 % 72 % 0,0 l/m²  
28.01.2016 70 % 55 % 77 % 0,0 l/m²  
29.01.2016 60 % 39 % 70 % 0,0 l/m²  
30.01.2016 68 % 60 % 75 % 0,0 l/m²  
31.01.2016 71 % 61 % 79 % 0,0 l/m²  
Februar 2016
01.02.2016 66 % 47 % 81 % 0,0 l/m²  
02.02.2016 68 % 47 % 82 % 0,0 l/m²  
03.02.2016 75 % 67 % 80 % 0,0 l/m²  
04.02.2016 75 % 64 % 82 % 0,0 l/m²  
05.02.2016 79 % 76 % 81 % 0,0 l/m²  
06.02.2016 77 % 63 % 81 % 0,0 l/m²  
07.02.2016 80 % 68 % 87 % 0,0 l/m²  
08.02.2016 81 % 72 % 89 % 0,0 l/m²  
09.02.2016 78 % 64 % 86 % 0,0 l/m²  
10.02.2016 75 % 64 % 84 % 0,0 l/m²  
11.02.2016 69 % 57 % 78 % 0,0 l/m²  
12.02.2016 77 % 66 % 87 % 0,0 l/m²  
13.02.2016 83 % 80 % 88 % 0,0 l/m²  
14.02.2016 78 % 67 % 88 % 4,1 l/m² 1,4 l/m²
15.02.2016 72 % 58 % 79 % 0,7 l/m² 0,7 l/m²
16.02.2016 69 % 53 % 81 % 2,7 l/m² 0,7 l/m²
17.02.2016 64 % 56 % 68 % 0,0 l/m²  
18.02.2016 78 % 62 % 91 % 70,7 l/m² 12,4 l/m²
19.02.2016 82 % 72 % 88 % 124,3 l/m² 102,3 l/m²
20.02.2016 85 % 79 % 89 % 38,5 l/m² 5,5 l/m²
21.02.2016 78 % 62 % 87 % 30,2 l/m² 7,6 l/m²
22.02.2016 74 % 67 % 81 % 0,0 l/m²  
23.02.2016 74 % 68 % 81 % 0,0 l/m²  
24.02.2016 70 % 60 % 77 % 0,0 l/m²  
25.02.2016 71 % 64 % 76 % 0,0 l/m²  
26.02.2016 68 % 60 % 73 % 0,0 l/m²  
27.02.2016 73 % 61 % 86 % 4,8 l/m² 2,1 l/m²
28.02.2016 75 % 64 % 83 % 0,7 l/m² 1,4 l/m²
29.02.2016 75 % 61 % 83 % 2,1 l/m² 0,7 l/m²
März 2016
01.03.2016 70 % 59 % 79 % 0,0 l/m²  
02.03.2016 60 % 33 % 83 % 0,0 l/m²  
03.03.2016 62 % 46 % 80 % 0,0 l/m²  
04.03.2016 72 % 62 % 80 % 0,0 l/m²  
05.03.2016 69 % 50 % 80 % 0,0 l/m²  
06.03.2016 71 % 54 % 83 % 1,4 l/m² 0,7 l/m²
07.03.2016 72 % 59 % 81 % 2,7 l/m² 1,4 l/m²
08.03.2016 72 % 56 % 85 % 3,4 l/m² 0,7 l/m²
09.03.2016 69 % 60 % 77 % 0,0 l/m²  
10.03.2016 71 % 62 % 82 % 0,0 l/m²  
11.03.2016 72 % 66 % 79 % 0,0 l/m²  
12.03.2016 69 % 61 % 76 % 0,0 l/m²  
13.03.2016 70 % 62 % 76 % 0,0 l/m²  
14.03.2016 72 % 62 % 80 % 0,0 l/m²
15.03.2016 72 % 60 % 79 % 0,0 l/m²
16.03.2016 64 % 53 % 78 % 0,0 l/m²
17.03.2016 69 % 48 % 82 % 0,0 l/m²  
18.03.2016 72 % 57 % 81 % 0,0 l/m²
19.03.2016 73 % 56 % 83 % 1,4 l/m² 0,7 l/m²
20.03.2016 73 % 61 % 82 % 7,6 l/m² 4,1 l/m²
21.03.2016 68 % 53 % 84 % 4,8 l/m² 2,1 l/m²
22.03.2016 64% 53 % 73 % 0,0 l/m²  
23.03.2016 69 % 54 % 86 % 0,0 l/m²  
24.03.2016 70 % 56 % 86 % 3,4 l/m² 2,1 l/m²
25.03.2016 66 % 55 % 74 % 0,0 l/m²  
26.03.2016 69 % 60 % 77 % 0,0 l/m²  
27.03.2016 66 % 58 % 74 % 0,0 l/m²
28.03.2016 73 % 66 % 78 % 0,0 l/m²
29.03.2016 71 % 58 % 78 % 0,0 l/m²
30.03.2016 71 % 49 % 84 % 9,6 l/m² 3,4 l/m²
31.03.2016 85% 75 % 91 % 35,0 l/m² 6,9 l/m²
April 2016
01.04.2016 71 % 61 % 78 % 0,0 l/m²  
02.04.2016 71 % 58 % 79 % 0,0 l/m²  
03.04.2016 75 % 69 % 80 % 0,0 l/m²  
04.04.2016 73 % 60 % 83 % 0,0 l/m²  
05.04.2016 79 % 68 % 87 % 0,0 l/m²  
06.04.2016 78 % 70 % 85 % 0,0 l/m²
07.04.2016 74 % 52 % 87 % 1,4 l/m² 0,7 l/m²
08.04.2016 70 % 58 % 82 % 2,7 l/m² 2,1 l/m²
09.04.2016 70 % 62 % 77 % 0,0 l/m²  
10.04.2016 65 % 48 % 78 % 0,0 l/m²  
11.04.2016 66 % 47 % 82 % 1,4 l/m²

 0,7 l/m²

12.04.2016 70 % 61 % 81 % 2,1 l/m²

 2,1 l/m²

13.04.2016 76 % 65 % 82 % 0,0 l/m²  
14.04.2016 70 % 55 % 78 % 0,0 l/m²
15.04.2016 70 % 63 % 81 % 0,0 l/m²
16.04.2016 72 % 64 % 79 % 0,0 l/m²
17.04.2016 74 % 69 % 81 % 0,0 l/m²  
18.04.2016 75 % 67 % 87 % 9,6 l/m² 2,7 l/m²
19.04.2016 69 % 59 % 78 % 0,7 l/m² 0,7 l/m²
20.04.2016 68 % 57 % 76 % 0,0 l/m²
21.04.2016 71 % 62 % 78 % 0,0 l/m²
22.04.2016 74 % 63 % 83 % 0,0 l/m²  
23.04.2016 80 % 70 % 86 % 0,7 l/m²

 0,7 l/m²

24.04.2016 69 % 53 % 79 % 0,0 l/m²
25.04.2016 69 % 62 % 78 % 0,0 l/m²  
26.04.2016 65 % 54 % 73 % 0,0 l/m²  
27.04.2016 68 % 60 % 73 % 0,0 l/m²
28.04.2016 71 % 62 % 76 % 0,0 l/m²
29.04.2016 73 % 64 % 78 % 0,0 l/m²
30.04.2016 72 % 60 % 80 % 0,0 l/m²
Mai 2016

Wind und Windböen: Jahr 2016 (Stand: 30.04.2016)

 

Wind & Richtung

Windböen

Datum Minimum-Wind 2016 01.01.2016 - 01.01.2016
Minimum Wert 2016 0,0 km/h - 0,0 km/h
Datum Maximum-Wind 2016 18.02.2016 18:59 Uhr - 30.01.2016 01:23 Uhr
Maximum Wert 2016 10,5 km/h aus SO - 16,1 km/h aus O-SO
Durchschnitt Wind 2016 1,4 km/h O-SO 1,9 km/h

 

Datum

Wind

Max

Richtung

Windböen

Max

Januar 2016
01.01.2016 1,4 km/h 2,7 km/h SO 1,9 km/h 5,0 km/h
02.01.2016 1,4 km/h 3,2 km/h O-SO 1,9 km/h 3,9 km/h
03.01.2016 1,0 km/h 2,7 km/h SO 1,6 km/h 4,5 km/h
04.01.2016 0,6 km/h 1,9 km/h SO 1,0 km/h 3,9 km/h
05.01.2016 1,3 km/h 3,9 km/h O-SO 1,8 km/h 7,2 km/h
06.01.2016 1,8 km/h 3,9 km/h SO 2,6 km/h 6,0 km/h
07.01.2016 1,2 km/h 3,7 km/h S 1,4 km/h 4,5 km/h
08.01.2016 0,7 km/h 2,1 km/h SO 0,8 km/h 3,2 km/h
09.01.2016 1,0 km/h 2,6 km/h O-SO 1,3 km/h 4,3 km/h
10.01.2016 1,1 km/h 2,6 km/h O-SO 1,5 km/h 4,2 km/h
11.01.2016 0,9 km/h 2,6 km/h O-SO 1,2 km/h 2,9 km/h
12.01.2016 1,3 km/h 3,1 km/h SO 1,5 km/h 3,7 km/h
13.01.2016 1,5 km/h 4,8 km/h O-SO 1,9 km/h 5,5 km/h
14.01.2016 1,3 km/h 3,1 km/h O-SO 1,6 km/h 4,0 km/h
15.01.2016 1,2 km/h 3,1 km/h O-SO 1,6 km/h 6,0 km/h
16.01.2016 1,2 km/h 2,7 km/h SO 1,6 km/h 3,9 km/h
17.01.2016 1,0 km/h 2,6 km/h O-SO 1,5 km/h 3,9 km/h
18.01.2016 1,0 km/h 2,9 km/h O-SO 1,4 km/h 4,2 km/h
19.01.2016 1,1 km/h 2,6 km/h O-SO 1,5 km/h 3,5 km/h
20.01.2016 1,0 km/h 2,6 km/h O-SO 1,5 km/h 5,8 km/h
21.01.2016 1,4 km/h 3,5 km/h O-SO 1,7 km/h 4,0 km/h
22.01.2016 1,1 km/h 2,6 km/h O-SO 1,6 km/h 4,0 km/h
23.01.2016 1,3 km/h 2,9 km/h O-SO 2,0 km/h 7,7 km/h
24.01.2016 1,4 km/h 3,2 km/h SO 1,5 km/h 5,5 km/h
25.01.2016 1,1 km/h 2,9 km/h O-SO 1,6 km/h 4,8 km/h
26.01.2016 1,5 km/h 3,1 km/h SO 1,8 km/h 3,9 km/h
27.01.2016 1,2 km/h 2,9 km/h O-SO 1,6 km/h 5,0 km/h
28.01.2016 1,4 km/h 3,9 km/h SO 1,8 km/h 5,5 km/h
29.01.2016 2,1 km/h 5,6 km/h O-SO 3,2 km/h 10,0 km/h
30.01.2016 2,2 km/h 3,9 km/h O-SO 3,2 km/h 16,1 km/h
31.01.2016 1,8 km/h 3,4 km/h SO 2,1 km/h 6,3 km/h
Februar 2016
01.02.2016 1,3 km/h 3,9 km/h O-SO 1,6 km/h 3,7 km/h
02.02.2016 0,7 km/h 2,7 km/h O-SO 0,8 km/h 2,9 km/h
03.02.2016 0,6 km/h 2,6 km/h NO 1,1 km/h 7,1 km/h
04.02.2016 0,8 km/h 2,9 km/h SO 1,1 km/h 3,9 km/h
05.02.2016 0,9 km/h 3,5 km/h W-NW 1,1 km/h 5,1 km/h
06.02.2016 0,9 km/h 3,1 km/h N-NW 1,3 km/h 5,5 km/h
07.02.2016 1,0 km/h 2,7 km/h SO 1,7 km/h 7,1 km/h
08.02.2016 0,8 km/h 2,4 km/h O-SO 1,1 km/h 4,0 km/h
09.02.2016 1,3 km/h 3,4 km/h O-SO 1,5 km/h 6,1 km/h
10.02.2016 1,3 km/h 2,4 km/h NO 2,0 km/h 6,0 km/h
11.02.2016 1,3 km/h 2,9 km/h NW 2,1 km/h 4,8 km/h
12.02.2016 1,3 km/h 3,2 km/h O-NO 1,9 km/h 6,1 km/h
13.02.2016 1,1 km/h 2,9 km/h O-SO 1,4 km/h 6,6 km/h
14.02.2016 1,9 km/h 5,0 km/h O-NO 2,6 km/h 12,2 km/h
15.02.2016 1,9 km/h 3,7 km/h O-SO 3,1 km/h 10,8 km/h
16.02.2016 2,0 km/h 4,3 km/h O-SO 2,5 km/h 6,8 km/h
17.02.2016 2,0 km/h 4,2 km/h O-NO 2,8 km/h 11,4 km/h
18.02.2016 3,1 km/h 10,5 km/h SO 3,9 km/h 14,5 km/h
19.02.2016 3,3 km/h 8,4 km/h N-NW 4,2 km/h 13,8 km/h
20.02.2016 1,6 km/h 4,0 km/h N-NO 2,4 km/h 8,9 km/h
21.02.2016 1,5 km/h 5,1 km/h N 2,1 km/h 6,6 km/h
22.02.2016 1,5 km/h 3,2 km/h N-NO 2,0 km/h 6,8 km/h
23.02.2016 1,6 km/h 3,2 km/h S-SW 2,3 km/h 5,1 km/h
24.02.2016 1,8 km/h 3,5 km/h NW 2,8 km/h 10,0 km/h
25.02.2016 1,5 km/h 3,7 km/h W-NW 2,4 km/h 6,3 km/h
26.02.2016 1,6 km/h 3,4 km/h S-SW 2,6 km/h 6,4 km/h
27.02.2016 1,0 km/h 2,9 km/h SW 1,8 km/h 7,1 km/h
28.02.2016 1,1 km/h 4,5 km/h N-NO 1,8 km/h 7,6 km/h
29.02.2016 2,4 km/h 4,2 km/h W-NW 3,2 km/h 7,4 km/h
März 2016
01.03.2016 2,1 km/h 4,5 km/h N 2,7 km/h 10,5 km/h
02.03.2016 1,2 km/h 2,9 km/h N 1,4 km/h 4,3 km/h
03.03.2016 1,2 km/h 2,7 km/h N-NO 1,3 km/h 4,5 km/h
04.03.2016 1,1 km/h 3,1 km/h SW 1,6 km/h 4,8 km/h
05.03.2016 1,2 km/h 3,2 km/h SW 1,9 km/h 6,9 km/h
06.03.2016 1,8 km/h 4,5 km/h SW 2,4 km/h 6,4 km/h
07.03.2016 2,4 km/h 4,7 km/h NW 2,9 km/h 6,9 km/h
08.03.2016 1,1 km/h 4,5 km/h NW 3,0 km/h 7,2 km/h
09.03.2016 2,3 km/h 4,7 km/h N-NW 3,5 km/h 7,9 km/h
10.03.2016 2,0 km/h 5,0 km/h N-NO 2,4 km/h 7,7 km/h
11.03.2016 2,1 km/h 4,7 km/h NW 2,9 km/h 7,7 km/h
12.03.2016 0,8 km/h 3,7 km/h O-NO 1,5 km/h 6,4 km/h
13.03.2016 1,0 km/h 3,7 km/h S 1,5 km/h 6,1 km/h
14.03.2016 1,0 km/h 2,4 km/h N 1,6 km/h 7,6 km/h
15.03.2016 1,3 km/h 2,9 km/h N-NO 1,7 km/h 3,9 km/h
16.03.2016 1,2 km/h 3,5 km/h N 1,6 km/h 4,0 km/h
17.03.2016 1,0 km/h 2,7 km/h N-NO 1,4 km/h 3,9 km/h
18.03.2016 1,3 km/h 3,4 km/h W-NW 1,7 km/h 5,8 km/h
19.03.2016 0,8 km/h 2,6 km/h S 1,1 km/h 5,5 km/h
20.03.2016 0,8 km/h 3,2 km/h O-NO 1,0 km/h 6,0 km/h
21.03.2016 1,5 km/h 4,5 km/h O-NO 2,3 km/h 5,6 km/h
22.03.2016 1,1 km/h 3,5 km/h N-NO 1,8 km/h 6,6 km/h
23.03.2016 1,5 km/h 4,5 km/h N-NO 2,0 km/h 5,5 km/h
24.03.2016 1,7 km/h 4,8 km/h W 2,7 km/h 10,5 km/h
25.03.2016 1,8 km/h 3,9 km/h W-NW 2,8 km/h 9,8 km/h
26.03.2016 1,4 km/h 3,7 km/h SW 2,4 km/h 11,6 km/h
27.03.2016 1,9 km/h 3,5 km/h W 2,8 km/h 10,9 km/h
28.03.2016 0,8 km/h 3,4 km/h O-NO 0,8 km/h 5,0 km/h
29.03.2016 0,9 km/h 2,9 km/h N 1,2 km/h 4,3 km/h
30.03.2016 1,6 km/h 4,8 km/h N-NO 2,0 km/h 5,8 km/h
31.03.2016 2,3 km/h 4,5 km/h W 2,3 km/h 7,2 km/h
April 2016
01.04.2016 1,6 km/h 3,7 km/h NW 2,4 km/h 6,4 km/h
02.04.2016 0,8 km/h 2,1 km/h W 1,5 km/h 5,0 km/h
03.04.2016 1,0 km/h 3,4 km/h S 1,7 km/h 5,0 km/h
04.04.2016 0,9 km/h 3,4 km/h N-NO 1,4 km/h 4,7 km/h
05.04.2016 1,2 km/h 3,5 km/h S-SW 1,7 km/h 5,1 km/h
06.04.2016 1,4 km/h 3,7 km/h SW 2,0 km/h 5,8 km/h
07.04.2016 1,8 km/h 4,2 km/h SW 2,9 km/h 8,7 km/h
08.04.2016 2,3 km/h 4,2 km/h N 3,4 km/h 7,7 km/h
09.04.2016 2,0 km/h 2,9 km/h W-NW 2,9 km/h 6,9 km/h
10.04.2016 0,9 km/h 2,7 km/h S 1,2 km/h 4,8 km/h
11.04.2016 0,8 km/h 3,4 km/h N-NO 1,3 km/h 4,5 km/h
12.04.2016 1,2 km/h 3,5 km/h N-NO 1,5 km/h 4,5 km/h
13.04.2016 0,7 km/h 2,4 km/h N 0,8 km/h 2,9 km/h
14.04.2016 1,6 km/h 2,7 km/h N-NO 1,9 km/h 4,0 km/h
15.04.2016 1,3 km/h 3,4 km/h S 2,0 km/h 4,0 km/h
16.04.2016 1,0 km/h 2,4 km/h N-NO 1,5 km/h 4,7 km/h
17.04.2016 0,9 km/h 3,1 km/h N-NO 1,5 km/h 4,2 km/h
18.04.2016 0,6 km/h 2,4 km/h N-NO 1,1 km/h 3,9 km/h
19.04.2016 1,7 km/h 3,2 km/h N 2,2 km/h 4,5 km/h
20.04.2016 1,6 km/h 2,7 km/h N 1,9 km/h 5,8 km/h
21.04.2016 1,2 km/h 2,7 km/h N-NO 1,8 km/h 5,1 km/h
22.04.2016 1,2 km/h 2,4 km/h N 1,5 km/h 5,1 km/h
23.04.2016 0,7 km/h 3,2 km/h SW 1,0 km/h 7,4 km/h
24.04.2016 1,2 km/h 3,2 km/h W-NW 1,9 km/h 6,9 km/h
25.04.2016 1,2 km/h 2,9 km/h S 1,4 km/h 4,7 km/h
26.04.2016 1,4 km/h 3,9 km/h W-NW 2,1 km/h 9,2 km/h
27.04.2016 1,4 km/h 3,4 km/h NW 2,4 km/h 6,1 km/h
28.04.2016 1,3 km/h 3,4 km/h SW 2,0 km/h 4,8 km/h
29.04.2016 1,1 km/h 2,9 km/h SW 1,9 km/h 5,0 km/h
30.04.2016 2,1 km/h 5,0 km/h SW 2,9 km/h 12,9 km/h
Mai 2016